Time;durP1;ratioP1;P1;durP2;ratioP2;P2;SDS_P1;SDS_P2;PMS_P1;PMS_P2;Temp;Humidity;BMP_temperature;BMP_pressure;BME280_temperature;BME280_humidity;BME280_pressure;Samples;Min_cycle;Max_cycle;Signal;HPM_P1;HPM_P2
2023/07/28 00:09:42;;;;;;;3.70;3.20;;;;;;;16.08;57.85;98604.33;438962;1256;139278;-72
2023/07/28 00:19:48;;;;;;;4.60;3.30;;;;;;;16.03;58.41;98591.63;438549;1254;138354;-73
2023/07/28 00:29:53;;;;;;;4.60;3.40;;;;;;;15.98;59.36;98580.20;439074;1257;138381;-72
2023/07/28 00:39:59;;;;;;;5.10;3.40;;;;;;;15.92;60.18;98573.91;437524;1256;140188;-72
2023/07/28 00:50:07;;;;;;;4.80;2.80;;;;;;;15.84;60.27;98576.65;434999;1256;139140;-72
2023/07/28 01:00:14;;;;;;;3.90;3.00;;;;;;;15.81;60.88;98560.49;435759;1253;138978;-73
2023/07/28 01:10:27;;;;;;;4.10;2.90;;;;;;;15.77;61.60;98542.55;438850;1256;140148;-72
2023/07/28 01:20:35;;;;;;;3.80;3.30;;;;;;;15.73;61.11;98535.21;438889;1254;139070;-72
2023/07/28 01:30:41;;;;;;;4.40;4.00;;;;;;;15.74;61.14;98534.39;439339;1255;138931;-74
2023/07/28 01:40:47;;;;;;;6.30;3.30;;;;;;;15.78;60.98;98530.83;439007;1254;139978;-72
2023/07/28 01:50:53;;;;;;;3.60;3.20;;;;;;;15.78;61.27;98527.06;437494;1254;139108;-71
2023/07/28 02:00:59;;;;;;;3.50;2.80;;;;;;;15.79;61.69;98520.48;434973;1255;139144;-72
2023/07/28 02:11:05;;;;;;;6.50;2.80;;;;;;;15.78;62.42;98514.36;434787;1257;139991;-72
2023/07/28 02:21:11;;;;;;;3.90;3.20;;;;;;;15.71;62.37;98507.91;434725;1257;139474;-71
2023/07/28 02:31:17;;;;;;;4.30;3.10;;;;;;;15.62;62.82;98505.92;434949;1254;140950;-73
2023/07/28 02:41:23;;;;;;;6.10;3.40;;;;;;;15.53;63.52;98501.54;434963;1257;139196;-72
2023/07/28 02:51:29;;;;;;;4.80;3.60;;;;;;;15.41;63.66;98494.46;435082;1253;139114;-73
2023/07/28 03:01:35;;;;;;;3.30;3.00;;;;;;;15.36;63.95;98494.86;438635;1253;139218;-72
2023/07/28 03:11:41;;;;;;;3.90;2.60;;;;;;;15.36;64.23;98500.27;435280;1257;139017;-72
2023/07/28 03:21:47;;;;;;;4.60;2.90;;;;;;;15.35;64.43;98493.30;436202;1254;139433;-72
2023/07/28 03:31:52;;;;;;;4.40;2.80;;;;;;;15.36;64.65;98493.54;434995;1254;139785;-72
2023/07/28 03:41:58;;;;;;;2.10;1.70;;;;;;;15.41;65.64;98485.20;435119;1256;139281;-71
2023/07/28 03:52:05;;;;;;;2.50;2.30;;;;;;;15.46;67.25;98481.16;434829;1253;141030;-73
2023/07/28 04:02:10;;;;;;;2.80;1.90;;;;;;;15.50;69.05;98471.89;435716;1254;140992;-71
2023/07/28 04:12:16;;;;;;;2.10;1.90;;;;;;;15.52;69.98;98464.60;435184;1256;139250;-71
2023/07/28 04:22:22;;;;;;;2.70;2.00;;;;;;;15.57;71.09;98464.52;434961;1257;139395;-73
2023/07/28 04:32:27;;;;;;;3.00;2.50;;;;;;;15.48;72.30;98459.75;438439;1253;141054;-72
2023/07/28 04:42:33;;;;;;;2.80;2.60;;;;;;;15.35;73.63;98452.08;438501;1254;142516;-74
2023/07/28 04:52:39;;;;;;;2.60;2.30;;;;;;;15.16;74.75;98443.95;437183;1253;142223;-71
2023/07/28 05:02:45;;;;;;;3.30;2.20;;;;;;;15.00;75.85;98440.11;434680;1256;141308;-71
2023/07/28 05:12:51;;;;;;;3.40;3.10;;;;;;;14.97;77.22;98437.02;435087;1256;139777;-71
2023/07/28 05:22:57;;;;;;;4.60;3.40;;;;;;;15.08;78.14;98441.39;435283;1253;140264;-72
2023/07/28 05:33:02;;;;;;;4.20;3.50;;;;;;;15.22;78.94;98428.52;438612;1256;141000;-72
2023/07/28 05:43:08;;;;;;;5.20;3.90;;;;;;;15.41;79.27;98414.84;438340;1256;139529;-71
2023/07/28 05:53:14;;;;;;;6.20;3.70;;;;;;;15.45;79.59;98401.67;438851;1253;140525;-68
2023/07/28 06:03:20;;;;;;;4.80;4.10;;;;;;;15.52;79.97;98389.83;434587;1252;139891;-68
2023/07/28 06:13:26;;;;;;;3.80;3.10;;;;;;;15.63;80.49;98395.82;434895;1254;139894;-68
2023/07/28 06:23:32;;;;;;;3.10;2.80;;;;;;;15.77;80.54;98396.65;435151;1254;139817;-68
2023/07/28 06:33:38;;;;;;;4.00;3.40;;;;;;;15.97;80.84;98382.42;435148;1254;140905;-68
2023/07/28 06:43:43;;;;;;;3.20;2.90;;;;;;;16.29;81.00;98377.77;435245;1256;140862;-68
2023/07/28 06:53:49;;;;;;;3.80;3.10;;;;;;;16.68;80.47;98375.27;435771;1255;139026;-68
2023/07/28 07:03:56;;;;;;;3.10;2.80;;;;;;;17.10;79.70;98381.30;435698;1254;140220;-75
2023/07/28 07:14:02;;;;;;;3.60;3.20;;;;;;;17.77;79.23;98393.14;438876;1253;139802;-80
2023/07/28 07:24:09;;;;;;;5.00;2.80;;;;;;;18.39;77.29;98396.45;440353;1253;140823;-74
2023/07/28 07:34:15;;;;;;;3.40;2.60;;;;;;;18.67;75.88;98393.86;439084;1253;139462;-73
2023/07/28 07:44:21;;;;;;;4.50;2.60;;;;;;;18.88;75.18;98394.51;437032;1254;139790;-68
2023/07/28 07:54:27;;;;;;;5.60;2.30;;;;;;;19.20;74.53;98393.23;435801;1254;139115;-82
2023/07/28 08:04:33;;;;;;;2.90;2.00;;;;;;;19.49;73.35;98390.13;439172;1253;140304;-77
2023/07/28 08:14:39;;;;;;;1.30;1.10;;;;;;;18.97;73.09;98405.50;439271;1252;139323;-74
2023/07/28 08:24:44;;;;;;;2.30;1.70;;;;;;;18.34;74.61;98426.73;436701;1254;141176;-73
2023/07/28 08:34:50;;;;;;;2.20;1.60;;;;;;;18.01;75.95;98439.31;439530;1254;139057;-70
2023/07/28 08:44:56;;;;;;;2.00;1.90;;;;;;;17.60;76.80;98406.39;438917;1256;139238;-73
2023/07/28 08:55:02;;;;;;;4.50;2.00;;;;;;;17.27;77.95;98401.41;438943;1253;139593;-77
2023/07/28 09:05:17;;;;;;;1.40;1.30;;;;;;;17.07;79.91;98424.08;439206;1253;139507;-78
2023/07/28 09:15:23;;;;;;;1.90;1.60;;;;;;;17.11;80.94;98437.79;438170;1256;139578;-78
2023/07/28 09:25:31;;;;;;;1.40;1.10;;;;;;;17.13;81.85;98408.35;438815;1254;140585;-69
2023/07/28 09:35:47;;;;;;;1.80;1.30;;;;;;;17.20;82.10;98422.58;438738;1253;139002;-68
2023/07/28 09:45:56;;;;;;;1.30;1.00;;;;;;;17.24;83.17;98436.54;438873;1256;139885;-70
2023/07/28 09:56:02;;;;;;;1.70;1.60;;;;;;;17.67;83.55;98440.83;435136;1256;139873;-68
2023/07/28 10:06:09;;;;;;;2.20;1.80;;;;;;;17.97;83.41;98433.39;435575;1253;139168;-67
2023/07/28 10:16:17;;;;;;;2.30;1.60;;;;;;;18.94;83.01;98421.83;435292;1253;139388;-67
2023/07/28 10:26:35;;;;;;;1.20;0.90;;;;;;;20.02;80.57;98427.75;436976;1254;139203;-69
2023/07/28 10:36:46;;;;;;;1.60;0.70;;;;;;;21.37;77.76;98423.77;436970;1256;140310;-63
2023/07/28 10:46:52;;;;;;;0.90;0.80;;;;;;;21.62;74.82;98423.42;435214;1253;139247;-61
2023/07/28 10:57:02;;;;;;;0.80;0.50;;;;;;;21.20;74.35;98429.27;440156;1253;139235;-63
2023/07/28 11:07:09;;;;;;;1.50;1.40;;;;;;;21.31;73.64;98436.29;434912;1254;139172;-62
2023/07/28 11:17:16;;;;;;;1.60;0.90;;;;;;;21.13;73.18;98433.55;435405;1253;139404;-62
2023/07/28 11:27:23;;;;;;;1.00;1.00;;;;;;;21.88;73.11;98424.35;434991;1254;140455;-63
2023/07/28 11:37:30;;;;;;;0.70;0.70;;;;;;;22.64;71.61;98419.75;435450;1256;139293;-62
2023/07/28 11:47:37;;;;;;;0.60;0.60;;;;;;;22.92;70.83;98403.41;434966;1253;140734;-62
2023/07/28 11:57:44;;;;;;;1.30;1.00;;;;;;;23.00;69.93;98409.02;435331;1253;139256;-62
2023/07/28 12:07:51;;;;;;;1.50;1.40;;;;;;;22.65;69.74;98418.70;434737;1253;142006;-62
2023/07/28 12:18:11;;;;;;;1.80;1.70;;;;;;;21.97;70.82;98431.13;436340;1256;139020;-62
2023/07/28 12:28:20;;;;;;;2.70;1.70;;;;;;;22.74;71.62;98421.35;434604;1256;140180;-62
2023/07/28 12:38:26;;;;;;;1.60;1.50;;;;;;;23.72;70.38;98401.92;434935;1256;140953;-61
2023/07/28 12:48:35;;;;;;;3.30;1.90;;;;;;;23.26;69.33;98412.31;435219;1253;140686;-62
2023/07/28 12:58:53;;;;;;;2.30;1.80;;;;;;;21.98;70.80;98435.20;435433;1256;139507;-59
2023/07/28 13:09:02;;;;;;;1.60;1.50;;;;;;;21.34;73.20;98424.88;434962;1253;139718;-63
2023/07/28 13:19:10;;;;;;;1.30;1.20;;;;;;;21.95;73.78;98410.06;435320;1253;139589;-64
2023/07/28 13:29:16;;;;;;;1.00;1.00;;;;;;;22.40;72.93;98412.67;435229;1256;138983;-67
2023/07/28 13:39:22;;;;;;;1.10;1.10;;;;;;;22.32;72.04;98418.14;434949;1256;140875;-64
2023/07/28 13:49:28;;;;;;;1.60;1.50;;;;;;;21.76;72.06;98428.14;437243;1253;139654;-64
2023/07/28 13:59:33;;;;;;;1.30;1.20;;;;;;;21.61;73.17;98435.09;434986;1253;139148;-66
2023/07/28 14:09:39;;;;;;;1.40;1.00;;;;;;;22.84;73.01;98412.89;434952;1253;140091;-67
2023/07/28 14:19:45;;;;;;;1.00;1.00;;;;;;;23.54;69.98;98412.58;434841;1254;142480;-67
2023/07/28 14:29:51;;;;;;;1.10;1.00;;;;;;;23.79;68.56;98412.13;434771;1254;139182;-64
2023/07/28 14:39:57;;;;;;;0.90;0.80;;;;;;;23.87;67.47;98405.48;434591;1254;139919;-66
2023/07/28 14:50:04;;;;;;;4.30;2.20;;;;;;;23.78;66.67;98418.77;435046;1254;139620;-63
2023/07/28 15:00:12;;;;;;;5.20;0.80;;;;;;;22.98;64.97;98428.06;435646;1253;139533;-63
2023/07/28 15:10:18;;;;;;;2.60;1.40;;;;;;;22.43;66.32;98428.84;434934;1254;142267;-67
2023/07/28 15:20:24;;;;;;;2.00;1.70;;;;;;;22.02;67.86;98444.14;436366;1256;139879;-65
2023/07/28 15:30:30;;;;;;;3.30;3.00;;;;;;;21.80;68.41;98449.63;435270;1254;141312;-67
2023/07/28 15:40:36;;;;;;;2.20;2.00;;;;;;;21.62;69.25;98458.93;435983;1256;139703;-66
2023/07/28 15:50:42;;;;;;;3.30;1.40;;;;;;;21.19;70.83;98454.20;434744;1256;139593;-65
2023/07/28 16:00:48;;;;;;;2.00;1.80;;;;;;;20.73;72.66;98488.84;435657;1256;140310;-63
2023/07/28 16:10:54;;;;;;;1.90;1.80;;;;;;;20.35;74.45;98510.04;435051;1256;139599;-66
2023/07/28 16:21:00;;;;;;;2.40;1.60;;;;;;;19.96;75.81;98527.81;435349;1256;140676;-63
2023/07/28 16:31:07;;;;;;;2.40;1.70;;;;;;;19.94;77.15;98514.08;435473;1256;139690;-64
2023/07/28 16:41:13;;;;;;;2.00;1.50;;;;;;;20.35;77.25;98499.51;435481;1256;139113;-63
2023/07/28 16:51:19;;;;;;;1.00;1.00;;;;;;;20.66;76.75;98505.92;435498;1254;140023;-63
2023/07/28 17:01:25;;;;;;;1.50;1.40;;;;;;;20.53;76.14;98522.73;435283;1256;139419;-63
2023/07/28 17:11:32;;;;;;;1.40;1.30;;;;;;;20.30;76.84;98524.09;435167;1254;139761;-63
2023/07/28 17:21:38;;;;;;;2.00;1.40;;;;;;;20.25;77.04;98526.13;435073;1256;139642;-63
2023/07/28 17:31:44;;;;;;;1.60;1.50;;;;;;;19.81;77.87;98524.49;434953;1256;139705;-63
2023/07/28 17:41:50;;;;;;;1.60;1.50;;;;;;;19.75;79.89;98526.55;435242;1256;139360;-63
2023/07/28 17:51:57;;;;;;;1.60;1.50;;;;;;;19.91;79.48;98547.83;435219;1257;139497;-63
2023/07/28 18:02:03;;;;;;;1.80;1.70;;;;;;;19.41;80.12;98568.73;435367;1256;139338;-63
2023/07/28 18:12:09;;;;;;;3.20;1.30;;;;;;;19.00;81.33;98576.94;434870;1257;139870;-65
2023/07/28 18:22:16;;;;;;;2.00;1.70;;;;;;;18.72;82.52;98579.64;435149;1257;140018;-67
2023/07/28 18:32:27;;;;;;;2.70;1.80;;;;;;;18.46;84.05;98577.91;434687;1256;139404;-62
2023/07/28 18:42:33;;;;;;;1.80;1.70;;;;;;;18.15;85.47;98583.05;435048;1254;139895;-62
2023/07/28 18:52:40;;;;;;;2.40;2.20;;;;;;;17.85;87.12;98592.53;436990;1257;140018;-64
2023/07/28 19:02:45;;;;;;;2.40;2.20;;;;;;;17.56;88.78;98602.38;434739;1256;139799;-63
2023/07/28 19:12:53;;;;;;;2.10;2.00;;;;;;;17.42;90.42;98610.98;435456;1257;139721;-64
2023/07/28 19:22:59;;;;;;;2.20;2.10;;;;;;;17.40;91.44;98616.88;435374;1257;140043;-64
2023/07/28 19:33:06;;;;;;;2.40;2.30;;;;;;;17.26;91.81;98624.84;434849;1257;140094;-62
2023/07/28 19:43:12;;;;;;;2.90;2.30;;;;;;;17.05;92.61;98623.67;436089;1256;195234;-64
2023/07/28 19:53:17;;;;;;;2.50;2.30;;;;;;;16.91;93.24;98635.77;435454;1255;139017;-63
2023/07/28 20:03:23;;;;;;;5.80;5.10;;;;;;;16.73;93.86;98645.05;436019;1255;141056;-63
2023/07/28 20:13:29;;;;;;;3.20;2.80;;;;;;;16.58;94.42;98649.94;435217;1256;140144;-62
2023/07/28 20:23:37;;;;;;;3.60;3.30;;;;;;;16.47;94.82;98659.92;435586;1257;140421;-64
2023/07/28 20:33:45;;;;;;;3.20;2.20;;;;;;;16.32;95.32;98669.44;435213;1255;138985;-63
2023/07/28 20:43:51;;;;;;;3.50;3.10;;;;;;;16.15;95.78;98672.52;435018;1257;139859;-62
2023/07/28 20:53:57;;;;;;;7.20;3.30;;;;;;;16.02;96.07;98681.22;435335;1257;139454;-63
2023/07/28 21:04:03;;;;;;;3.60;3.00;;;;;;;15.82;96.15;98685.52;435395;1257;140614;-63
2023/07/28 21:14:09;;;;;;;3.50;3.10;;;;;;;15.77;97.10;98693.40;436136;1257;139576;-63
2023/07/28 21:24:15;;;;;;;3.50;3.00;;;;;;;15.74;97.34;98700.77;435234;1254;139026;-63
2023/07/28 21:34:21;;;;;;;4.80;3.40;;;;;;;15.65;97.53;98706.77;434917;1254;139504;-64
2023/07/28 21:44:26;;;;;;;4.30;3.10;;;;;;;15.51;97.61;98711.14;435207;1257;139037;-63
2023/07/28 21:54:32;;;;;;;4.00;3.20;;;;;;;15.37;98.06;98719.55;435180;1254;140509;-63
2023/07/28 22:04:38;;;;;;;4.00;3.50;;;;;;;15.31;98.49;98721.07;435215;1256;140109;-64
2023/07/28 22:14:44;;;;;;;3.00;2.80;;;;;;;15.24;98.88;98726.30;435313;1254;140232;-66
2023/07/28 22:24:50;;;;;;;5.30;3.80;;;;;;;15.15;99.14;98734.07;436677;1253;139373;-66
2023/07/28 22:34:56;;;;;;;6.80;3.90;;;;;;;15.02;99.00;98734.51;435039;1254;139589;-68
2023/07/28 22:45:02;;;;;;;4.30;3.90;;;;;;;14.92;99.29;98739.58;434754;1257;140177;-67
2023/07/28 22:55:09;;;;;;;4.90;4.10;;;;;;;14.86;99.78;98757.52;434605;1254;139847;-66
2023/07/28 23:05:21;;;;;;;5.60;5.10;;;;;;;14.78;99.97;98762.89;434784;1256;139000;-66
2023/07/28 23:15:27;;;;;;;5.80;5.30;;;;;;;14.77;100.00;98772.48;434811;1256;139606;-65
2023/07/28 23:25:33;;;;;;;7.40;5.70;;;;;;;14.78;100.00;98772.07;434930;1254;140166;-67
2023/07/28 23:35:38;;;;;;;6.40;5.10;;;;;;;14.92;100.00;98774.44;435085;1256;139829;-68
2023/07/28 23:45:44;;;;;;;7.20;6.60;;;;;;;15.10;100.00;98772.19;435357;1256;140454;-67
2023/07/28 23:55:51;;;;;;;7.30;6.60;;;;;;;15.23;100.00;98765.70;435365;1254;140250;-68
